<?xml version="1.0" encoding="UTF-8" standalone="no" ?>
<gpx xmlns="http://www.topografix.com/GPX/1/1" xmlns:xsi="http://www.w3.org/2001/XMLSchema-instance" xsi:schemaLocation="http://www.topografix.com/GPX/1/1 http://www.topografix.com/GPX/1/1/gpx.xsd" version="1.1" creator="VisuGPX - https://www.visugpx.com">
  <metadata>
    <name>La Bardenas Reales</name>
  </metadata>
  <trk>
    <name><![CDATA[8-9  Valdenovillas - Sancho Abarca]]></name>
    <extensions>
      <line xmlns="http://www.topografix.com/GPX/gpx_style/0/2">
        <color>0080ff</color>
        <opacity>0.5</opacity>
        <width>12</width>
      </line>
    </extensions>
    <trkseg>
      <trkpt lat="41.96678" lon="-1.38166">
        <ele>249</ele>
        <time>2010-11-06T17:51:28Z</time>
      </trkpt>
      <trkpt lat="41.9672" lon="-1.38184">
        <ele>250</ele>
        <time>2010-11-06T17:51:41Z</time>
      </trkpt>
      <trkpt lat="41.96775" lon="-1.38134">
        <ele>254</ele>
        <time>2010-11-06T17:52:03Z</time>
      </trkpt>
      <trkpt lat="41.96916" lon="-1.38116">
        <ele>259</ele>
        <time>2010-11-06T17:52:46Z</time>
      </trkpt>
      <trkpt lat="41.96925" lon="-1.38105">
        <ele>259</ele>
        <time>2010-11-06T17:52:51Z</time>
      </trkpt>
      <trkpt lat="41.96966" lon="-1.37701">
        <ele>282</ele>
        <time>2010-11-06T17:54:25Z</time>
      </trkpt>
      <trkpt lat="41.9708" lon="-1.37507">
        <ele>293</ele>
        <time>2010-11-06T17:55:21Z</time>
      </trkpt>
      <trkpt lat="41.972" lon="-1.37453">
        <ele>298</ele>
        <time>2010-11-06T17:56:00Z</time>
      </trkpt>
      <trkpt lat="41.97278" lon="-1.37465">
        <ele>298</ele>
        <time>2010-11-06T17:56:24Z</time>
      </trkpt>
      <trkpt lat="41.97344" lon="-1.37514">
        <ele>299</ele>
        <time>2010-11-06T17:56:48Z</time>
      </trkpt>
      <trkpt lat="41.97428" lon="-1.37526">
        <ele>299</ele>
        <time>2010-11-06T17:57:14Z</time>
      </trkpt>
      <trkpt lat="41.9748" lon="-1.37512">
        <ele>297</ele>
        <time>2010-11-06T17:57:30Z</time>
      </trkpt>
      <trkpt lat="41.975" lon="-1.3745">
        <ele>299</ele>
        <time>2010-11-06T17:57:47Z</time>
      </trkpt>
      <trkpt lat="41.9746" lon="-1.37254">
        <ele>305</ele>
        <time>2010-11-06T17:58:33Z</time>
      </trkpt>
      <trkpt lat="41.97512" lon="-1.37137">
        <ele>310</ele>
        <time>2010-11-06T17:59:05Z</time>
      </trkpt>
      <trkpt lat="41.97585" lon="-1.3709">
        <ele>314</ele>
        <time>2010-11-06T17:59:29Z</time>
      </trkpt>
      <trkpt lat="41.97593" lon="-1.37064">
        <ele>316</ele>
        <time>2010-11-06T17:59:37Z</time>
      </trkpt>
      <trkpt lat="41.97568" lon="-1.36949">
        <ele>319</ele>
        <time>2010-11-06T18:00:04Z</time>
      </trkpt>
      <trkpt lat="41.97575" lon="-1.36888">
        <ele>320</ele>
        <time>2010-11-06T18:00:18Z</time>
      </trkpt>
      <trkpt lat="41.97788" lon="-1.36747">
        <ele>322</ele>
        <time>2010-11-06T18:01:32Z</time>
      </trkpt>
      <trkpt lat="41.9803" lon="-1.36702">
        <ele>316</ele>
        <time>2010-11-06T18:02:46Z</time>
      </trkpt>
      <trkpt lat="41.98195" lon="-1.36691">
        <ele>322</ele>
        <time>2010-11-06T18:03:37Z</time>
      </trkpt>
      <trkpt lat="41.98269" lon="-1.36723">
        <ele>324</ele>
        <time>2010-11-06T18:04:03Z</time>
      </trkpt>
      <trkpt lat="41.98639" lon="-1.36614">
        <ele>327</ele>
        <time>2010-11-06T18:05:59Z</time>
      </trkpt>
      <trkpt lat="41.98713" lon="-1.36619">
        <ele>321</ele>
        <time>2010-11-06T18:06:21Z</time>
      </trkpt>
      <trkpt lat="41.98841" lon="-1.36653">
        <ele>326</ele>
        <time>2010-11-06T18:07:03Z</time>
      </trkpt>
      <trkpt lat="41.99166" lon="-1.36661">
        <ele>339</ele>
        <time>2010-11-06T18:08:43Z</time>
      </trkpt>
      <trkpt lat="41.99384" lon="-1.36502">
        <ele>351</ele>
        <time>2010-11-06T18:09:59Z</time>
      </trkpt>
      <trkpt lat="41.9951" lon="-1.36494">
        <ele>351</ele>
        <time>2010-11-06T18:10:38Z</time>
      </trkpt>
      <trkpt lat="41.99632" lon="-1.36532">
        <ele>353</ele>
        <time>2010-11-06T18:11:16Z</time>
      </trkpt>
      <trkpt lat="41.99769" lon="-1.36525">
        <ele>353</ele>
        <time>2010-11-06T18:12:00Z</time>
      </trkpt>
      <trkpt lat="41.9982" lon="-1.36554">
        <ele>354</ele>
        <time>2010-11-06T18:12:18Z</time>
      </trkpt>
      <trkpt lat="41.99829" lon="-1.36446">
        <ele>350</ele>
        <time>2010-11-06T18:12:43Z</time>
      </trkpt>
      <trkpt lat="41.99854" lon="-1.3635">
        <ele>354</ele>
        <time>2010-11-06T18:13:07Z</time>
      </trkpt>
      <trkpt lat="41.99881" lon="-1.36298">
        <ele>359</ele>
        <time>2010-11-06T18:13:22Z</time>
      </trkpt>
      <trkpt lat="41.99969" lon="-1.36208">
        <ele>352</ele>
        <time>2010-11-06T18:13:55Z</time>
      </trkpt>
      <trkpt lat="42.00018" lon="-1.36091">
        <ele>347</ele>
        <time>2010-11-06T18:14:27Z</time>
      </trkpt>
      <trkpt lat="42.00017" lon="-1.3605">
        <ele>346</ele>
        <time>2010-11-06T18:14:36Z</time>
      </trkpt>
      <trkpt lat="41.99944" lon="-1.35861">
        <ele>345</ele>
        <time>2010-11-06T18:15:26Z</time>
      </trkpt>
      <trkpt lat="41.99944" lon="-1.35741">
        <ele>336</ele>
        <time>2010-11-06T18:15:53Z</time>
      </trkpt>
      <trkpt lat="41.99958" lon="-1.35699">
        <ele>331</ele>
        <time>2010-11-06T18:16:04Z</time>
      </trkpt>
      <trkpt lat="41.99978" lon="-1.35689">
        <ele>329</ele>
        <time>2010-11-06T18:16:10Z</time>
      </trkpt>
      <trkpt lat="42.00175" lon="-1.35703">
        <ele>327</ele>
        <time>2010-11-06T18:17:11Z</time>
      </trkpt>
      <trkpt lat="42.00318" lon="-1.35742">
        <ele>334</ele>
        <time>2010-11-06T18:17:55Z</time>
      </trkpt>
      <trkpt lat="42.00496" lon="-1.35767">
        <ele>326</ele>
        <time>2010-11-06T18:18:51Z</time>
      </trkpt>
      <trkpt lat="42.00761" lon="-1.35772">
        <ele>333</ele>
        <time>2010-11-06T18:20:12Z</time>
      </trkpt>
      <trkpt lat="42.0081" lon="-1.35795">
        <ele>333</ele>
        <time>2010-11-06T18:20:28Z</time>
      </trkpt>
      <trkpt lat="42.00894" lon="-1.35874">
        <ele>334</ele>
        <time>2010-11-06T18:21:00Z</time>
      </trkpt>
      <trkpt lat="42.01007" lon="-1.35914">
        <ele>336</ele>
        <time>2010-11-06T18:21:37Z</time>
      </trkpt>
      <trkpt lat="42.01125" lon="-1.36027">
        <ele>342</ele>
        <time>2010-11-06T18:22:21Z</time>
      </trkpt>
      <trkpt lat="42.01299" lon="-1.36108">
        <ele>343</ele>
        <time>2010-11-06T18:23:18Z</time>
      </trkpt>
      <trkpt lat="42.01541" lon="-1.36124">
        <ele>344</ele>
        <time>2010-11-06T18:24:32Z</time>
      </trkpt>
      <trkpt lat="42.01694" lon="-1.36167">
        <ele>344</ele>
        <time>2010-11-06T18:25:21Z</time>
      </trkpt>
      <trkpt lat="42.01785" lon="-1.3621">
        <ele>346</ele>
        <time>2010-11-06T18:25:51Z</time>
      </trkpt>
      <trkpt lat="42.01906" lon="-1.36236">
        <ele>351</ele>
        <time>2010-11-06T18:26:28Z</time>
      </trkpt>
      <trkpt lat="42.02128" lon="-1.36209">
        <ele>357</ele>
        <time>2010-11-06T18:27:37Z</time>
      </trkpt>
      <trkpt lat="42.02181" lon="-1.36232">
        <ele>357</ele>
        <time>2010-11-06T18:27:54Z</time>
      </trkpt>
      <trkpt lat="42.02247" lon="-1.36214">
        <ele>356</ele>
        <time>2010-11-06T18:28:15Z</time>
      </trkpt>
      <trkpt lat="42.02306" lon="-1.36279">
        <ele>356</ele>
        <time>2010-11-06T18:28:39Z</time>
      </trkpt>
      <trkpt lat="42.0234" lon="-1.36278">
        <ele>355</ele>
        <time>2010-11-06T18:28:50Z</time>
      </trkpt>
      <trkpt lat="42.02386" lon="-1.36224">
        <ele>358</ele>
        <time>2010-11-06T18:29:09Z</time>
      </trkpt>
      <trkpt lat="42.0245" lon="-1.36234">
        <ele>363</ele>
        <time>2010-11-06T18:29:28Z</time>
      </trkpt>
      <trkpt lat="42.02581" lon="-1.36142">
        <ele>368</ele>
        <time>2010-11-06T18:30:14Z</time>
      </trkpt>
      <trkpt lat="42.02598" lon="-1.36102">
        <ele>369</ele>
        <time>2010-11-06T18:30:25Z</time>
      </trkpt>
      <trkpt lat="42.02607" lon="-1.35994">
        <ele>377</ele>
        <time>2010-11-06T18:30:51Z</time>
      </trkpt>
      <trkpt lat="42.02657" lon="-1.35968">
        <ele>376</ele>
        <time>2010-11-06T18:31:07Z</time>
      </trkpt>
      <trkpt lat="42.02675" lon="-1.35928">
        <ele>379</ele>
        <time>2010-11-06T18:31:19Z</time>
      </trkpt>
      <trkpt lat="42.02792" lon="-1.3582">
        <ele>377</ele>
        <time>2010-11-06T18:32:01Z</time>
      </trkpt>
      <trkpt lat="42.02862" lon="-1.3578">
        <ele>377</ele>
        <time>2010-11-06T18:32:26Z</time>
      </trkpt>
      <trkpt lat="42.0308" lon="-1.35701">
        <ele>376</ele>
        <time>2010-11-06T18:33:35Z</time>
      </trkpt>
      <trkpt lat="42.03135" lon="-1.35564">
        <ele>384</ele>
        <time>2010-11-06T18:34:11Z</time>
      </trkpt>
      <trkpt lat="42.03133" lon="-1.35475">
        <ele>388</ele>
        <time>2010-11-06T18:34:32Z</time>
      </trkpt>
      <trkpt lat="42.03194" lon="-1.3538">
        <ele>390</ele>
        <time>2010-11-06T18:35:01Z</time>
      </trkpt>
      <trkpt lat="42.03219" lon="-1.35283">
        <ele>397</ele>
        <time>2010-11-06T18:35:25Z</time>
      </trkpt>
      <trkpt lat="42.03305" lon="-1.35112">
        <ele>397</ele>
        <time>2010-11-06T18:36:12Z</time>
      </trkpt>
      <trkpt lat="42.03322" lon="-1.35007">
        <ele>401</ele>
        <time>2010-11-06T18:36:36Z</time>
      </trkpt>
      <trkpt lat="42.03345" lon="-1.34974">
        <ele>406</ele>
        <time>2010-11-06T18:36:47Z</time>
      </trkpt>
      <trkpt lat="42.03447" lon="-1.34924">
        <ele>411</ele>
        <time>2010-11-06T18:37:22Z</time>
      </trkpt>
      <trkpt lat="42.03488" lon="-1.34884">
        <ele>402</ele>
        <time>2010-11-06T18:37:37Z</time>
      </trkpt>
      <trkpt lat="42.0353" lon="-1.34808">
        <ele>414</ele>
        <time>2010-11-06T18:37:59Z</time>
      </trkpt>
      <trkpt lat="42.03688" lon="-1.34619">
        <ele>406</ele>
        <time>2010-11-06T18:39:06Z</time>
      </trkpt>
      <trkpt lat="42.03737" lon="-1.34534">
        <ele>404</ele>
        <time>2010-11-06T18:39:30Z</time>
      </trkpt>
      <trkpt lat="42.03808" lon="-1.34518">
        <ele>400</ele>
        <time>2010-11-06T18:39:52Z</time>
      </trkpt>
      <trkpt lat="42.03815" lon="-1.34502">
        <ele>404</ele>
        <time>2010-11-06T18:39:57Z</time>
      </trkpt>
      <trkpt lat="42.03816" lon="-1.34446">
        <ele>413</ele>
        <time>2010-11-06T18:40:10Z</time>
      </trkpt>
      <trkpt lat="42.03791" lon="-1.34337">
        <ele>432</ele>
        <time>2010-11-06T18:40:37Z</time>
      </trkpt>
      <trkpt lat="42.03753" lon="-1.34267">
        <ele>442</ele>
        <time>2010-11-06T18:40:56Z</time>
      </trkpt>
      <trkpt lat="42.03694" lon="-1.34204">
        <ele>455</ele>
        <time>2010-11-06T18:41:21Z</time>
      </trkpt>
      <trkpt lat="42.0366" lon="-1.34063">
        <ele>466</ele>
        <time>2010-11-06T18:41:56Z</time>
      </trkpt>
      <trkpt lat="42.03612" lon="-1.3406">
        <ele>470</ele>
        <time>2010-11-06T18:42:11Z</time>
      </trkpt>
      <trkpt lat="42.03597" lon="-1.34044">
        <ele>469</ele>
        <time>2010-11-06T18:42:17Z</time>
      </trkpt>
      <trkpt lat="42.03549" lon="-1.33888">
        <ele>482</ele>
        <time>2010-11-06T18:42:55Z</time>
      </trkpt>
      <trkpt lat="42.03415" lon="-1.33817">
        <ele>500</ele>
        <time>2010-11-06T18:43:41Z</time>
      </trkpt>
      <trkpt lat="42.03269" lon="-1.33589">
        <ele>527</ele>
        <time>2010-11-06T18:44:51Z</time>
      </trkpt>
      <trkpt lat="42.03197" lon="-1.33413">
        <ele>560</ele>
        <time>2010-11-06T18:45:39Z</time>
      </trkpt>
      <trkpt lat="42.03187" lon="-1.33218">
        <ele>567</ele>
        <time>2010-11-06T18:46:24Z</time>
      </trkpt>
      <trkpt lat="42.03225" lon="-1.33045">
        <ele>578</ele>
        <time>2010-11-06T18:47:05Z</time>
      </trkpt>
      <trkpt lat="42.03398" lon="-1.3268">
        <ele>590</ele>
        <time>2010-11-06T18:48:45Z</time>
      </trkpt>
      <trkpt lat="42.03496" lon="-1.3256">
        <ele>591</ele>
        <time>2010-11-06T18:49:27Z</time>
      </trkpt>
      <trkpt lat="42.03489" lon="-1.32463">
        <ele>597</ele>
        <time>2010-11-06T18:49:50Z</time>
      </trkpt>
      <trkpt lat="42.03411" lon="-1.32333">
        <ele>598</ele>
        <time>2010-11-06T18:50:29Z</time>
      </trkpt>
      <trkpt lat="42.03454" lon="-1.32249">
        <ele>594</ele>
        <time>2010-11-06T18:50:51Z</time>
      </trkpt>
      <trkpt lat="42.03519" lon="-1.32177">
        <ele>600</ele>
        <time>2010-11-06T18:51:18Z</time>
      </trkpt>
      <trkpt lat="42.03566" lon="-1.31945">
        <ele>605</ele>
        <time>2010-11-06T18:52:14Z</time>
      </trkpt>
      <trkpt lat="42.03447" lon="-1.31872">
        <ele>598</ele>
        <time>2010-11-06T18:52:55Z</time>
      </trkpt>
      <trkpt lat="42.03513" lon="-1.31793">
        <ele>603</ele>
        <time>2010-11-06T18:53:22Z</time>
      </trkpt>
      <trkpt lat="42.03509" lon="-1.31708">
        <ele>602</ele>
        <time>2010-11-06T18:53:43Z</time>
      </trkpt>
      <trkpt lat="42.036" lon="-1.31569">
        <ele>603</ele>
        <time>2010-11-06T18:54:24Z</time>
      </trkpt>
      <trkpt lat="42.03629" lon="-1.31458">
        <ele>604</ele>
        <time>2010-11-06T18:54:51Z</time>
      </trkpt>
      <trkpt lat="42.0366" lon="-1.3141">
        <ele>606</ele>
        <time>2010-11-06T18:55:06Z</time>
      </trkpt>
      <trkpt lat="42.03786" lon="-1.31349">
        <ele>604</ele>
        <time>2010-11-06T18:55:47Z</time>
      </trkpt>
      <trkpt lat="42.03795" lon="-1.31316">
        <ele>598</ele>
        <time>2010-11-06T18:55:57Z</time>
      </trkpt>
      <trkpt lat="42.03663" lon="-1.31287">
        <ele>592</ele>
        <time>2010-11-06T18:56:38Z</time>
      </trkpt>
      <trkpt lat="42.03589" lon="-1.31183">
        <ele>588</ele>
        <time>2010-11-06T18:57:12Z</time>
      </trkpt>
      <trkpt lat="42.0348" lon="-1.31124">
        <ele>583</ele>
        <time>2010-11-06T18:57:48Z</time>
      </trkpt>
      <trkpt lat="42.03336" lon="-1.31123">
        <ele>584</ele>
        <time>2010-11-06T18:58:33Z</time>
      </trkpt>
      <trkpt lat="42.0326" lon="-1.3115">
        <ele>591</ele>
        <time>2010-11-06T18:58:57Z</time>
      </trkpt>
      <trkpt lat="42.03134" lon="-1.31259">
        <ele>583</ele>
        <time>2010-11-06T18:59:43Z</time>
      </trkpt>
      <trkpt lat="42.03104" lon="-1.31326">
        <ele>587</ele>
        <time>2010-11-06T19:00:02Z</time>
      </trkpt>
      <trkpt lat="42.02957" lon="-1.31503">
        <ele>571</ele>
        <time>2010-11-06T19:01:02Z</time>
      </trkpt>
      <trkpt lat="42.02913" lon="-1.31615">
        <ele>575</ele>
        <time>2010-11-06T19:01:31Z</time>
      </trkpt>
      <trkpt lat="42.02789" lon="-1.31778">
        <ele>578</ele>
        <time>2010-11-06T19:02:25Z</time>
      </trkpt>
      <trkpt lat="42.02724" lon="-1.3184">
        <ele>576</ele>
        <time>2010-11-06T19:02:49Z</time>
      </trkpt>
      <trkpt lat="42.02639" lon="-1.31902">
        <ele>575</ele>
        <time>2010-11-06T19:03:19Z</time>
      </trkpt>
      <trkpt lat="42.02523" lon="-1.31937">
        <ele>579</ele>
        <time>2010-11-06T19:03:57Z</time>
      </trkpt>
      <trkpt lat="42.02505" lon="-1.31978">
        <ele>576</ele>
        <time>2010-11-06T19:04:07Z</time>
      </trkpt>
      <trkpt lat="42.02227" lon="-1.3199">
        <ele>583</ele>
        <time>2010-11-06T19:05:33Z</time>
      </trkpt>
      <trkpt lat="42.02135" lon="-1.32031">
        <ele>586</ele>
        <time>2010-11-06T19:06:05Z</time>
      </trkpt>
      <trkpt lat="42.02066" lon="-1.32193">
        <ele>592</ele>
        <time>2010-11-06T19:06:46Z</time>
      </trkpt>
      <trkpt lat="42.02015" lon="-1.32384">
        <ele>625</ele>
        <time>2010-11-06T19:07:34Z</time>
      </trkpt>
      <trkpt lat="42.01981" lon="-1.3246">
        <ele>606</ele>
        <time>2010-11-06T19:07:56Z</time>
      </trkpt>
      <trkpt lat="42.01986" lon="-1.32492">
        <ele>602</ele>
        <time>2010-11-06T19:08:03Z</time>
      </trkpt>
      <trkpt lat="42.02023" lon="-1.3252">
        <ele>618</ele>
        <time>2010-11-06T19:08:18Z</time>
      </trkpt>
      <trkpt lat="42.01986" lon="-1.32492">
        <ele>602</ele>
        <time>2010-11-06T19:08:03Z</time>
      </trkpt>
      <trkpt lat="42.01981" lon="-1.3246">
        <ele>606</ele>
        <time>2010-11-06T19:07:56Z</time>
      </trkpt>
      <trkpt lat="42.02015" lon="-1.32384">
        <ele>625</ele>
        <time>2010-11-06T19:07:34Z</time>
      </trkpt>
      <trkpt lat="42.02066" lon="-1.32193">
        <ele>592</ele>
        <time>2010-11-06T19:06:46Z</time>
      </trkpt>
      <trkpt lat="42.02135" lon="-1.32031">
        <ele>586</ele>
        <time>2010-11-06T19:06:05Z</time>
      </trkpt>
      <trkpt lat="42.02227" lon="-1.3199">
        <ele>583</ele>
        <time>2010-11-06T19:05:33Z</time>
      </trkpt>
      <trkpt lat="42.02505" lon="-1.31978">
        <ele>576</ele>
        <time>2010-11-06T19:04:07Z</time>
      </trkpt>
      <trkpt lat="42.02523" lon="-1.31937">
        <ele>579</ele>
        <time>2010-11-06T19:03:57Z</time>
      </trkpt>
      <trkpt lat="42.02639" lon="-1.31902">
        <ele>575</ele>
        <time>2010-11-06T19:03:19Z</time>
      </trkpt>
      <trkpt lat="42.02724" lon="-1.3184">
        <ele>576</ele>
        <time>2010-11-06T19:02:49Z</time>
      </trkpt>
      <trkpt lat="42.02789" lon="-1.31778">
        <ele>578</ele>
        <time>2010-11-06T19:02:25Z</time>
      </trkpt>
      <trkpt lat="42.02913" lon="-1.31615">
        <ele>575</ele>
        <time>2010-11-06T19:01:31Z</time>
      </trkpt>
      <trkpt lat="42.02957" lon="-1.31503">
        <ele>571</ele>
        <time>2010-11-06T19:01:02Z</time>
      </trkpt>
      <trkpt lat="42.03104" lon="-1.31326">
        <ele>587</ele>
        <time>2010-11-06T19:00:02Z</time>
      </trkpt>
      <trkpt lat="42.03134" lon="-1.31259">
        <ele>583</ele>
        <time>2010-11-06T18:59:43Z</time>
      </trkpt>
      <trkpt lat="42.0326" lon="-1.3115">
        <ele>591</ele>
        <time>2010-11-06T18:58:57Z</time>
      </trkpt>
      <trkpt lat="42.03336" lon="-1.31123">
        <ele>584</ele>
        <time>2010-11-06T18:58:33Z</time>
      </trkpt>
      <trkpt lat="42.0348" lon="-1.31124">
        <ele>583</ele>
        <time>2010-11-06T18:57:48Z</time>
      </trkpt>
      <trkpt lat="42.03589" lon="-1.31183">
        <ele>588</ele>
        <time>2010-11-06T18:57:12Z</time>
      </trkpt>
      <trkpt lat="42.03663" lon="-1.31287">
        <ele>592</ele>
        <time>2010-11-06T18:56:38Z</time>
      </trkpt>
      <trkpt lat="42.038" lon="-1.31321">
        <ele>601</ele>
        <time>2010-11-06T18:55:55Z</time>
      </trkpt>
      <trkpt lat="42.03761" lon="-1.31366">
        <ele>605</ele>
        <time>2010-11-06T18:55:39Z</time>
      </trkpt>
      <trkpt lat="42.0366" lon="-1.3141">
        <ele>606</ele>
        <time>2010-11-06T18:55:06Z</time>
      </trkpt>
      <trkpt lat="42.03629" lon="-1.31458">
        <ele>604</ele>
        <time>2010-11-06T18:54:51Z</time>
      </trkpt>
      <trkpt lat="42.036" lon="-1.31569">
        <ele>603</ele>
        <time>2010-11-06T18:54:24Z</time>
      </trkpt>
      <trkpt lat="42.03509" lon="-1.31708">
        <ele>602</ele>
        <time>2010-11-06T18:53:43Z</time>
      </trkpt>
      <trkpt lat="42.03513" lon="-1.31793">
        <ele>603</ele>
        <time>2010-11-06T18:53:22Z</time>
      </trkpt>
      <trkpt lat="42.03447" lon="-1.31872">
        <ele>598</ele>
        <time>2010-11-06T18:52:55Z</time>
      </trkpt>
      <trkpt lat="42.03566" lon="-1.31945">
        <ele>605</ele>
        <time>2010-11-06T18:52:14Z</time>
      </trkpt>
      <trkpt lat="42.03519" lon="-1.32177">
        <ele>600</ele>
        <time>2010-11-06T18:51:18Z</time>
      </trkpt>
      <trkpt lat="42.03454" lon="-1.32249">
        <ele>594</ele>
        <time>2010-11-06T18:50:51Z</time>
      </trkpt>
      <trkpt lat="42.03411" lon="-1.32333">
        <ele>598</ele>
        <time>2010-11-06T18:50:29Z</time>
      </trkpt>
      <trkpt lat="42.03489" lon="-1.32463">
        <ele>597</ele>
        <time>2010-11-06T18:49:50Z</time>
      </trkpt>
      <trkpt lat="42.03496" lon="-1.3256">
        <ele>591</ele>
        <time>2010-11-06T18:49:27Z</time>
      </trkpt>
      <trkpt lat="42.03398" lon="-1.3268">
        <ele>590</ele>
        <time>2010-11-06T18:48:45Z</time>
      </trkpt>
      <trkpt lat="42.03225" lon="-1.33045">
        <ele>578</ele>
        <time>2010-11-06T18:47:05Z</time>
      </trkpt>
      <trkpt lat="42.03187" lon="-1.33218">
        <ele>567</ele>
        <time>2010-11-06T18:46:24Z</time>
      </trkpt>
      <trkpt lat="42.03197" lon="-1.33413">
        <ele>560</ele>
        <time>2010-11-06T18:45:39Z</time>
      </trkpt>
      <trkpt lat="42.03269" lon="-1.33589">
        <ele>527</ele>
        <time>2010-11-06T18:44:51Z</time>
      </trkpt>
      <trkpt lat="42.03415" lon="-1.33817">
        <ele>500</ele>
        <time>2010-11-06T18:43:41Z</time>
      </trkpt>
      <trkpt lat="42.03549" lon="-1.33888">
        <ele>482</ele>
        <time>2010-11-06T18:42:55Z</time>
      </trkpt>
      <trkpt lat="42.03597" lon="-1.34044">
        <ele>469</ele>
        <time>2010-11-06T18:42:17Z</time>
      </trkpt>
      <trkpt lat="42.03612" lon="-1.3406">
        <ele>470</ele>
        <time>2010-11-06T18:42:11Z</time>
      </trkpt>
      <trkpt lat="42.0366" lon="-1.34063">
        <ele>466</ele>
        <time>2010-11-06T18:41:56Z</time>
      </trkpt>
      <trkpt lat="42.03694" lon="-1.34204">
        <ele>455</ele>
        <time>2010-11-06T18:41:21Z</time>
      </trkpt>
      <trkpt lat="42.03753" lon="-1.34267">
        <ele>442</ele>
        <time>2010-11-06T18:40:56Z</time>
      </trkpt>
      <trkpt lat="42.03791" lon="-1.34337">
        <ele>432</ele>
        <time>2010-11-06T18:40:37Z</time>
      </trkpt>
      <trkpt lat="42.03816" lon="-1.34446">
        <ele>413</ele>
        <time>2010-11-06T18:40:10Z</time>
      </trkpt>
      <trkpt lat="42.03815" lon="-1.34502">
        <ele>404</ele>
        <time>2010-11-06T18:39:57Z</time>
      </trkpt>
      <trkpt lat="42.03808" lon="-1.34518">
        <ele>400</ele>
        <time>2010-11-06T18:39:52Z</time>
      </trkpt>
      <trkpt lat="42.03737" lon="-1.34534">
        <ele>404</ele>
        <time>2010-11-06T18:39:30Z</time>
      </trkpt>
      <trkpt lat="42.03688" lon="-1.34619">
        <ele>406</ele>
        <time>2010-11-06T18:39:06Z</time>
      </trkpt>
      <trkpt lat="42.0353" lon="-1.34808">
        <ele>414</ele>
        <time>2010-11-06T18:37:59Z</time>
      </trkpt>
      <trkpt lat="42.03488" lon="-1.34884">
        <ele>402</ele>
        <time>2010-11-06T18:37:37Z</time>
      </trkpt>
      <trkpt lat="42.03447" lon="-1.34924">
        <ele>411</ele>
        <time>2010-11-06T18:37:22Z</time>
      </trkpt>
      <trkpt lat="42.03345" lon="-1.34974">
        <ele>406</ele>
        <time>2010-11-06T18:36:47Z</time>
      </trkpt>
      <trkpt lat="42.03322" lon="-1.35007">
        <ele>401</ele>
        <time>2010-11-06T18:36:36Z</time>
      </trkpt>
      <trkpt lat="42.03305" lon="-1.35112">
        <ele>397</ele>
        <time>2010-11-06T18:36:12Z</time>
      </trkpt>
      <trkpt lat="42.03219" lon="-1.35283">
        <ele>397</ele>
        <time>2010-11-06T18:35:25Z</time>
      </trkpt>
      <trkpt lat="42.03194" lon="-1.3538">
        <ele>390</ele>
        <time>2010-11-06T18:35:01Z</time>
      </trkpt>
      <trkpt lat="42.03133" lon="-1.35475">
        <ele>388</ele>
        <time>2010-11-06T18:34:32Z</time>
      </trkpt>
      <trkpt lat="42.03135" lon="-1.35564">
        <ele>384</ele>
        <time>2010-11-06T18:34:11Z</time>
      </trkpt>
      <trkpt lat="42.0308" lon="-1.35701">
        <ele>376</ele>
        <time>2010-11-06T18:33:35Z</time>
      </trkpt>
      <trkpt lat="42.02862" lon="-1.3578">
        <ele>377</ele>
        <time>2010-11-06T18:32:26Z</time>
      </trkpt>
      <trkpt lat="42.02792" lon="-1.3582">
        <ele>377</ele>
        <time>2010-11-06T18:32:01Z</time>
      </trkpt>
      <trkpt lat="42.02675" lon="-1.35928">
        <ele>379</ele>
        <time>2010-11-06T18:31:19Z</time>
      </trkpt>
      <trkpt lat="42.02657" lon="-1.35968">
        <ele>376</ele>
        <time>2010-11-06T18:31:07Z</time>
      </trkpt>
      <trkpt lat="42.02607" lon="-1.35994">
        <ele>377</ele>
        <time>2010-11-06T18:30:51Z</time>
      </trkpt>
      <trkpt lat="42.02598" lon="-1.36102">
        <ele>369</ele>
        <time>2010-11-06T18:30:25Z</time>
      </trkpt>
      <trkpt lat="42.02581" lon="-1.36142">
        <ele>368</ele>
        <time>2010-11-06T18:30:14Z</time>
      </trkpt>
      <trkpt lat="42.0245" lon="-1.36234">
        <ele>363</ele>
        <time>2010-11-06T18:29:28Z</time>
      </trkpt>
      <trkpt lat="42.02386" lon="-1.36224">
        <ele>358</ele>
        <time>2010-11-06T18:29:09Z</time>
      </trkpt>
      <trkpt lat="42.0234" lon="-1.36278">
        <ele>355</ele>
        <time>2010-11-06T18:28:50Z</time>
      </trkpt>
      <trkpt lat="42.02306" lon="-1.36279">
        <ele>356</ele>
        <time>2010-11-06T18:28:39Z</time>
      </trkpt>
      <trkpt lat="42.02247" lon="-1.36214">
        <ele>356</ele>
        <time>2010-11-06T18:28:15Z</time>
      </trkpt>
      <trkpt lat="42.02181" lon="-1.36232">
        <ele>357</ele>
        <time>2010-11-06T18:27:54Z</time>
      </trkpt>
      <trkpt lat="42.02128" lon="-1.36209">
        <ele>357</ele>
        <time>2010-11-06T18:27:37Z</time>
      </trkpt>
      <trkpt lat="42.01906" lon="-1.36236">
        <ele>351</ele>
        <time>2010-11-06T18:26:28Z</time>
      </trkpt>
      <trkpt lat="42.01785" lon="-1.3621">
        <ele>346</ele>
        <time>2010-11-06T18:25:51Z</time>
      </trkpt>
      <trkpt lat="42.01694" lon="-1.36167">
        <ele>344</ele>
        <time>2010-11-06T18:25:21Z</time>
      </trkpt>
      <trkpt lat="42.01541" lon="-1.36124">
        <ele>344</ele>
        <time>2010-11-06T18:24:32Z</time>
      </trkpt>
      <trkpt lat="42.01299" lon="-1.36108">
        <ele>343</ele>
        <time>2010-11-06T18:23:18Z</time>
      </trkpt>
      <trkpt lat="42.01125" lon="-1.36027">
        <ele>342</ele>
        <time>2010-11-06T18:22:21Z</time>
      </trkpt>
      <trkpt lat="42.01007" lon="-1.35914">
        <ele>336</ele>
        <time>2010-11-06T18:21:37Z</time>
      </trkpt>
      <trkpt lat="42.00894" lon="-1.35874">
        <ele>334</ele>
        <time>2010-11-06T18:21:00Z</time>
      </trkpt>
      <trkpt lat="42.0081" lon="-1.35795">
        <ele>333</ele>
        <time>2010-11-06T18:20:28Z</time>
      </trkpt>
      <trkpt lat="42.00761" lon="-1.35772">
        <ele>333</ele>
        <time>2010-11-06T18:20:12Z</time>
      </trkpt>
      <trkpt lat="42.00496" lon="-1.35767">
        <ele>326</ele>
        <time>2010-11-06T18:18:51Z</time>
      </trkpt>
      <trkpt lat="42.00318" lon="-1.35742">
        <ele>334</ele>
        <time>2010-11-06T18:17:55Z</time>
      </trkpt>
      <trkpt lat="42.00175" lon="-1.35703">
        <ele>327</ele>
        <time>2010-11-06T18:17:11Z</time>
      </trkpt>
      <trkpt lat="41.99978" lon="-1.35689">
        <ele>329</ele>
        <time>2010-11-06T18:16:10Z</time>
      </trkpt>
      <trkpt lat="41.99958" lon="-1.35699">
        <ele>331</ele>
        <time>2010-11-06T18:16:04Z</time>
      </trkpt>
      <trkpt lat="41.99944" lon="-1.35741">
        <ele>336</ele>
        <time>2010-11-06T18:15:53Z</time>
      </trkpt>
      <trkpt lat="41.99944" lon="-1.35861">
        <ele>345</ele>
        <time>2010-11-06T18:15:26Z</time>
      </trkpt>
      <trkpt lat="42.00017" lon="-1.3605">
        <ele>346</ele>
        <time>2010-11-06T18:14:36Z</time>
      </trkpt>
      <trkpt lat="42.00018" lon="-1.36091">
        <ele>347</ele>
        <time>2010-11-06T18:14:27Z</time>
      </trkpt>
      <trkpt lat="41.99969" lon="-1.36208">
        <ele>352</ele>
        <time>2010-11-06T18:13:55Z</time>
      </trkpt>
      <trkpt lat="41.99881" lon="-1.36298">
        <ele>359</ele>
        <time>2010-11-06T18:13:22Z</time>
      </trkpt>
      <trkpt lat="41.99854" lon="-1.3635">
        <ele>354</ele>
        <time>2010-11-06T18:13:07Z</time>
      </trkpt>
      <trkpt lat="41.99829" lon="-1.36446">
        <ele>350</ele>
        <time>2010-11-06T18:12:43Z</time>
      </trkpt>
      <trkpt lat="41.9982" lon="-1.36554">
        <ele>354</ele>
        <time>2010-11-06T18:12:18Z</time>
      </trkpt>
      <trkpt lat="41.99769" lon="-1.36525">
        <ele>353</ele>
        <time>2010-11-06T18:12:00Z</time>
      </trkpt>
      <trkpt lat="41.99632" lon="-1.36532">
        <ele>353</ele>
        <time>2010-11-06T18:11:16Z</time>
      </trkpt>
      <trkpt lat="41.9951" lon="-1.36494">
        <ele>351</ele>
        <time>2010-11-06T18:10:38Z</time>
      </trkpt>
      <trkpt lat="41.99384" lon="-1.36502">
        <ele>351</ele>
        <time>2010-11-06T18:09:59Z</time>
      </trkpt>
      <trkpt lat="41.99166" lon="-1.36661">
        <ele>339</ele>
        <time>2010-11-06T18:08:43Z</time>
      </trkpt>
      <trkpt lat="41.98841" lon="-1.36653">
        <ele>326</ele>
        <time>2010-11-06T18:07:03Z</time>
      </trkpt>
      <trkpt lat="41.98713" lon="-1.36619">
        <ele>321</ele>
        <time>2010-11-06T18:06:21Z</time>
      </trkpt>
      <trkpt lat="41.98639" lon="-1.36614">
        <ele>327</ele>
        <time>2010-11-06T18:05:59Z</time>
      </trkpt>
      <trkpt lat="41.98269" lon="-1.36723">
        <ele>324</ele>
        <time>2010-11-06T18:04:03Z</time>
      </trkpt>
      <trkpt lat="41.98195" lon="-1.36691">
        <ele>322</ele>
        <time>2010-11-06T18:03:37Z</time>
      </trkpt>
      <trkpt lat="41.9803" lon="-1.36702">
        <ele>316</ele>
        <time>2010-11-06T18:02:46Z</time>
      </trkpt>
      <trkpt lat="41.97788" lon="-1.36747">
        <ele>322</ele>
        <time>2010-11-06T18:01:32Z</time>
      </trkpt>
      <trkpt lat="41.97575" lon="-1.36888">
        <ele>320</ele>
        <time>2010-11-06T18:00:18Z</time>
      </trkpt>
      <trkpt lat="41.97568" lon="-1.36949">
        <ele>319</ele>
        <time>2010-11-06T18:00:04Z</time>
      </trkpt>
      <trkpt lat="41.97593" lon="-1.37064">
        <ele>316</ele>
        <time>2010-11-06T17:59:37Z</time>
      </trkpt>
      <trkpt lat="41.97585" lon="-1.3709">
        <ele>314</ele>
        <time>2010-11-06T17:59:29Z</time>
      </trkpt>
      <trkpt lat="41.97512" lon="-1.37137">
        <ele>310</ele>
        <time>2010-11-06T17:59:05Z</time>
      </trkpt>
      <trkpt lat="41.9746" lon="-1.37254">
        <ele>305</ele>
        <time>2010-11-06T17:58:33Z</time>
      </trkpt>
      <trkpt lat="41.975" lon="-1.3745">
        <ele>299</ele>
        <time>2010-11-06T17:57:47Z</time>
      </trkpt>
      <trkpt lat="41.9748" lon="-1.37512">
        <ele>297</ele>
        <time>2010-11-06T17:57:30Z</time>
      </trkpt>
      <trkpt lat="41.97428" lon="-1.37526">
        <ele>299</ele>
        <time>2010-11-06T17:57:14Z</time>
      </trkpt>
      <trkpt lat="41.97344" lon="-1.37514">
        <ele>299</ele>
        <time>2010-11-06T17:56:48Z</time>
      </trkpt>
      <trkpt lat="41.97278" lon="-1.37465">
        <ele>298</ele>
        <time>2010-11-06T17:56:24Z</time>
      </trkpt>
      <trkpt lat="41.972" lon="-1.37453">
        <ele>298</ele>
        <time>2010-11-06T17:56:00Z</time>
      </trkpt>
      <trkpt lat="41.9708" lon="-1.37507">
        <ele>293</ele>
        <time>2010-11-06T17:55:21Z</time>
      </trkpt>
      <trkpt lat="41.96966" lon="-1.37701">
        <ele>282</ele>
        <time>2010-11-06T17:54:25Z</time>
      </trkpt>
      <trkpt lat="41.96925" lon="-1.38105">
        <ele>259</ele>
        <time>2010-11-06T17:52:51Z</time>
      </trkpt>
      <trkpt lat="41.96916" lon="-1.38116">
        <ele>259</ele>
        <time>2010-11-06T17:52:46Z</time>
      </trkpt>
      <trkpt lat="41.96775" lon="-1.38134">
        <ele>254</ele>
        <time>2010-11-06T17:52:03Z</time>
      </trkpt>
      <trkpt lat="41.9672" lon="-1.38184">
        <ele>250</ele>
        <time>2010-11-06T17:51:41Z</time>
      </trkpt>
      <trkpt lat="41.96678" lon="-1.38166">
        <ele>249</ele>
        <time>2010-11-06T17:51:28Z</time>
        <extensions>
          <visugpx:TrkExtension xmlns:visugpx="https://www.visugpx.com/editgpx/">
            <visugpx:node>1</visugpx:node>
            </visugpx:TrkExtension>
        </extensions>
      </trkpt>
    </trkseg>
  </trk>
</gpx>